• Join FlightAware (Why Join?)
  • Login
  • US Flag 
12:59AM EDT


 

Airport Tracker/Info


-or-


 

Live Flight TrackerFlight Track Log ✈ CSN3422 ✈ 10-May-2013 ✈ ZUGY / KWE - ZGGG / CAN

Flight Track Log - Related Links

Times and Time Zones

All times are in EDT time to prevent confusion due to time zone crossing. See the CSN3422 flight status page for this flight to view local times or setup timezone preferences in your user account.

Time Position Orientation Groundspeed Altitude Reporting Facility
EDT Latitude Longitude Course Direction KTS MPH feet Rate Location/Type
06:15AM 26.4807 106.9289 117° Southeast  Level Estimated
06:16AM 26.4228 107.0570 117° Southeast  Level Estimated
06:17AM 26.3648 107.1849 117° Southeast  Level Estimated
06:18AM 26.3067 107.3127 117° Southeast  Level Estimated
06:19AM 26.2485 107.4404 117° Southeast  Level Estimated
06:20AM 26.1901 107.5680 117° Southeast  Level Estimated
06:21AM 26.1317 107.6954 117° Southeast  Level Estimated
06:22AM 26.0731 107.8227 117° Southeast  Level Estimated
06:23AM 26.0144 107.9499 117° Southeast  Level Estimated
06:24AM 25.9556 108.0769 117° Southeast  Level Estimated
06:25AM 25.8967 108.2039 117° Southeast  Level Estimated
06:26AM 25.8377 108.3307 117° Southeast  Level Estimated
06:27AM 25.7786 108.4573 117° Southeast  Level Estimated
06:28AM 25.7194 108.5839 117° Southeast  Level Estimated
06:29AM 25.6600 108.7103 117° Southeast  Level Estimated
06:30AM 25.6006 108.8366 118° Southeast  Level Estimated
06:31AM 25.5410 108.9627 118° Southeast  Level Estimated
06:32AM 25.4813 109.0888 118° Southeast  Level Estimated
06:33AM 25.4216 109.2147 118° Southeast  Level Estimated
06:34AM 25.3617 109.3405 118° Southeast  Level Estimated
06:35AM 25.3017 109.4661 118° Southeast  Level Estimated
06:36AM 25.2416 109.5917 118° Southeast  Level Estimated
06:37AM 25.1814 109.7171 118° Southeast  Level Estimated
06:38AM 25.1211 109.8424 118° Southeast  Level Estimated
06:39AM 25.0607 109.9676 118° Southeast  Level Estimated
06:40AM 25.0002 110.0926 118° Southeast  Level Estimated
06:41AM 24.9395 110.2175 118° Southeast  Level Estimated
06:42AM 24.8788 110.3423 118° Southeast  Level Estimated
06:43AM 24.8180 110.4670 118° Southeast  Level Estimated
06:44AM 24.7570 110.5916 118° Southeast  Level Estimated
06:45AM 24.6960 110.7160 118° Southeast  Level Estimated
06:46AM 24.6349 110.8403 118° Southeast  Level Estimated
06:47AM 24.5736 110.9645 118° Southeast  Level Estimated
06:48AM 24.5123 111.0885 119° Southeast  Level Estimated
06:49AM 24.4508 111.2125 119° Southeast  Level Estimated
06:50AM 24.3893 111.3363 119° Southeast  Level Estimated
06:51AM 24.3276 111.4600 119° Southeast  Level Estimated
06:52AM 24.2659 111.5836 119° Southeast  Level Estimated
06:53AM 24.2040 111.7070 119° Southeast  Level Estimated
06:54AM 24.1421 111.8304 119° Southeast  Level Estimated
06:55AM 24.0801 111.9536 119° Southeast  Level Estimated
06:56AM 24.0179 112.0767 119° Southeast  Level Estimated
06:57AM 23.9557 112.1997 119° Southeast  Level Estimated
06:58AM 23.8933 112.3226 119° Southeast  Level Estimated
06:59AM 23.8309 112.4453 119° Southeast  Level Estimated
07:00AM 23.7684 112.5679 119° Southeast  Level Estimated
07:01AM 23.7057 112.6905 119° Southeast  Level Estimated
07:02AM 23.6430 112.8129 119° Southeast  Level Estimated
07:03AM 23.5802 112.9351 119° Southeast  Level Estimated
07:04AM 23.5173 113.0573 119° Southeast  Level Estimated
07:05AM 23.4543 113.1793 119° Southeast  Level Estimated
07:06AM 23.3924 113.2988 119° Southeast  Level Estimated
07:07AM 23.3924 113.2988 223° Southwest  Level Estimated
07:08AM 23.3924 113.2988 223° Southwest  Level Estimated
07:09AM 23.3924 113.2988 223° Southwest  Level Estimated
07:10AM 23.3924 113.2988 223° Southwest  Level Estimated
07:11AM 23.3924 113.2988 223° Southwest  Level Estimated
07:12AM 23.3924 113.2988 223° Southwest  Level Estimated
07:13AM 23.3924 113.2988 223° Southwest  Level Estimated
07:14AM 23.3924 113.2988 223° Southwest  Level Estimated
07:15AM 23.3924 113.2988 223° Southwest  Level Estimated
07:16AM 23.3924 113.2988 223° Southwest  Level Estimated
07:17AM 23.3924 113.2988 223° Southwest  Level Estimated
07:18AM 23.3924 113.2988 223° Southwest  Level Estimated
07:19AM 23.3924 113.2988 223° Southwest  Level Estimated
07:20AM 23.3924 113.2988 223° Southwest  Level Estimated
07:21AM 23.3924 113.2988 223° Southwest  Level Estimated
07:22AM 23.3924 113.2988 223° Southwest  Level Estimated